• Join FlightAware (Why Join?)
  • Login
  • US Flag 
07:49PM EDT


 

Airport Tracker/Info


-or-


 

Live Flight TrackerFlight Track Log ✈ SWA158 ✈ 24-Apr-2013 ✈ KMDW - KMHT

Flight Track Log - Related Links

Times and Time Zones

All times are in EDT time to prevent confusion due to time zone crossing. See the SWA158 flight status page for this flight to view local times or setup timezone preferences in your user account.

Time Position Orientation Groundspeed Altitude Reporting Facility
EDT Latitude Longitude Course Direction KTS MPH feet Rate Location/Type
03:08PM 41.8000 -87.7667 71° East 143 165 1,900  Level Chicago TRACON
03:09PM 41.8167 -87.7000 71° East 223 257 3,800 2,460 Climbing Chicago TRACON
03:10PM 41.8028 -87.5358 96° East 272 313 8,800 3,180 Climbing Chicago Center
03:11PM 41.7922 -87.3997 96° East 301 346 13,000 3,240 Climbing Chicago Center
03:13PM 41.7811 -87.2722 97° East 336 387 15,600 2,700 Climbing Chicago Center
03:14PM 41.7683 -87.1339 97° East 368 423 18,700 2,880 Climbing Chicago Center
03:15PM 41.7606 -86.9853 94° East 393 452 21,600 2,700 Climbing Chicago Center
03:16PM 41.7642 -86.8322 88° East 411 473 24,300 3,000 Climbing Chicago Center
03:17PM 41.7656 -86.6697 89° East 409 471 27,800 2,340 Climbing Chicago Center
03:18PM 41.7661 -86.5186 90° East 407 468 29,200 1,200 Climbing Chicago Center
03:19PM 41.7681 -86.3525 89° East 441 507 30,400 1,560 Climbing Chicago Center
03:20PM 41.7983 -86.1439 79° East 475 547 32,500 1,860 Climbing Chicago Center
03:21PM 41.8278 -85.9711 77° East 474 545 34,300 1,500 Climbing Chicago Center
03:22PM 41.8572 -85.7978 77° East 474 545 35,700 1,200 Climbing Chicago Center
03:23PM 41.8861 -85.6244 77° East 473 544 36,800 840 Climbing Chicago Center
03:24PM 41.9153 -85.4442 78° East 486 559 37,500 900 Climbing Chicago Center
03:25PM 41.9517 -85.2214 78° East 515 593 38,900 660 Climbing Cleveland Center
03:26PM 41.9544 -85.0428 89° East 494 568 39,000  Climbing Cleveland Center
03:27PM 41.9514 -84.8525 91° East 488 562 39,000  Level Cleveland Center
03:28PM 41.9497 -84.6653 91° East 496 571 39,000  Level Cleveland Center
03:29PM 41.9500 -84.4783 90° East 496 571 39,000  Level Cleveland Center
03:30PM 41.9425 -84.2683 93° East 496 571 39,000  Level Cleveland Center
03:31PM 41.9400 -84.0811 91° East 496 571 39,000  Level Cleveland Center
03:32PM 41.9394 -83.8911 90° East 501 577 39,000  Level Cleveland Center
03:33PM 41.9364 -83.6983 91° East 501 577 39,000  Level Cleveland Center
03:34PM 41.9311 -83.5056 92° East 506 582 39,000  Level Cleveland Center
03:35PM 41.9317 -83.3131 90° East 514 592 39,000  Level Cleveland Center
03:36PM 41.9314 -83.1369 90° East 520 598 39,000  Level Cleveland Center
03:37PM 41.9294 -82.9417 91° East 520 598 39,000  Level Cleveland Center
03:38PM 41.9292 -82.7489 90° East 520 598 39,000  Level Cleveland Center
03:39PM 41.9264 -82.5564 91° East 515 593 39,000  Level Cleveland Center
03:40PM 41.9233 -82.3636 91° East 515 593 39,000  Level Cleveland Center
03:41PM 41.9175 -82.1764 92° East 510 587 39,000  Level Cleveland Center
03:42PM 41.9222 -81.9814 88° East 510 587 39,000  Level Cleveland Center
03:43PM 41.9225 -81.7747 90° East 515 593 39,000  Level Cleveland Center
03:44PM 41.9431 -81.5797 82° East 515 593 39,000  Level Cleveland Center
03:45PM 41.9656 -81.3819 81° East 530 610 39,000  Level Cleveland Center
03:46PM 41.9875 -81.1781 82° East 537 618 39,000  Level Cleveland Center
03:47PM 42.0094 -80.9800 81° East 544 626 39,000  Level Cleveland Center
03:48PM 42.0306 -80.7761 82° East 550 633 39,000  Level Cleveland Center
03:49PM 42.0497 -80.5917 82° East 545 627 39,000 960 Level Cleveland Center
03:50PM 42.0703 -80.3733 83° East 545 627 41,000 960 Climbing Cleveland Center
03:51PM 42.0886 -80.1969 82° East 531 611 41,000  Level Cleveland Center
03:52PM 42.1064 -80.0039 83° East 520 598 41,000  Level Cleveland Center
03:53PM 42.1264 -79.8133 82° East 520 598 41,000  Level Cleveland Center
03:54PM 42.1436 -79.6169 83° East 532 612 41,000  Level Cleveland Center
03:55PM 42.1625 -79.4178 83° East 532 612 41,000  Level Cleveland Center
03:56PM 42.1811 -79.2186 83° East 532 612 41,000  Level Cleveland Center
03:57PM 42.2017 -79.0219 82° East 532 612 41,000  Level Cleveland Center
03:58PM 42.2278 -78.8083 81° East 532 612 41,000  Level Cleveland Center
03:59PM 42.2536 -78.6139 80° East 527 606 41,000  Level Cleveland Center
04:00PM 42.2794 -78.4167 80° East 527 606 41,000  Level Cleveland Center
04:01PM 42.3028 -78.2222 81° East 527 606 41,000  Level Cleveland Center
04:02PM 42.3256 -78.0303 81° East 527 606 41,000  Level Cleveland Center
04:03PM 42.3483 -77.8356 81° East 522 601 41,000  Level Cleveland Center
04:04PM 42.3686 -77.6461 82° East 522 601 41,000  Level Cleveland Center
04:06PM 42.3809 -77.4145 86° East  Level FlightAware Approximate
04:06PM 42.4108 -77.2814 86° East 522 601 41,000  Level Cleveland Center
04:08PM 42.4453 -76.9736 81° East 517 595 41,000  Level Boston Center
04:09PM 42.4675 -76.7836 81° East 517 595 41,000  Level Boston Center
04:10PM 42.4869 -76.5964 82° East 517 595 41,000  Level Boston Center
04:11PM 42.5064 -76.4033 82° East 517 595 41,000 -60 Level Boston Center
04:12PM 42.5297 -76.2017 81° East 517 595 40,900 -60 Descending Boston Center
04:13PM 42.5442 -76.0167 84° East 499 574 40,900  Level Boston Center
04:14PM 42.5644 -75.8344 81° East 499 574 41,000  Climbing Boston Center
04:15PM 42.6092 -75.6564 71° East 499 574 40,900  Descending Boston Center
04:16PM 42.6536 -75.4808 71° East 486 559 41,000 -540 Climbing Boston Center
04:17PM 42.6997 -75.3133 69° East 479 551 39,900 -1,620 Descending Boston Center
04:18PM 42.7353 -75.1369 75° East 479 551 37,800 -2,160 Descending Boston Center
04:19PM 42.7397 -74.9419 88° East 492 566 35,600 -2,280 Descending Boston Center
04:20PM 42.7417 -74.7500 89° East 498 573 33,300 -2,580 Descending Boston Center
04:21PM 42.7433 -74.5606 89° East 498 573 30,500 -2,160 Descending Boston Center
04:22PM 42.7444 -74.3767 89° East 492 566 29,000 -1,020 Descending Boston Center
04:23PM 42.7433 -74.1928 90° East 487 560 28,500 -840 Descending Boston Center
04:24PM 42.7456 -74.0375 89° East 480 552 27,400 -1,080 Descending Boston Center
04:25PM 42.7458 -73.8650 90° East 466 536 26,400 -1,080 Descending Boston Center
04:26PM 42.7542 -73.6814 86° East 445 512 25,300 -1,080 Descending Boston Center
04:27PM 42.7600 -73.5175 87° East 439 505 24,300 -1,020 Descending Boston Center
04:28PM 42.7656 -73.3564 87° East 429 494 23,300 -1,020 Descending Boston Center
04:29PM 42.7708 -73.1953 87° East 424 488 22,300 -1,020 Descending Boston Center
04:30PM 42.7761 -73.0397 87° East 418 481 21,300 -1,020 Descending Boston Center
04:31PM 42.7789 -72.8928 88° East 418 481 20,300 -1,200 Descending Boston Center
04:32PM 42.7856 -72.7514 86° East 402 463 18,900 -1,680 Descending Boston Center
04:33PM 42.7881 -72.6069 89° East 385 443 17,000 -1,800 Descending Boston Center
04:34PM 42.7900 -72.4711 89° East 373 429 15,400 -1,680 Descending Boston Center
04:35PM 42.7942 -72.3325 88° East 366 421 13,700 -1,800 Descending Boston Center
04:36PM 42.8022 -72.1883 86° East 361 415 11,900 -1,740 Descending Boston Center
04:37PM 42.8125 -72.0636 84° East 343 395 10,300 -1,380 Descending Boston Center
04:38PM 42.8558 -71.9586 61° Northeast 315 362 9,200 -1,500 Descending Boston Center
04:39PM 42.8992 -71.8533 61° Northeast 309 356 7,400 -1,560 Descending Boston Center
04:40PM 42.9422 -71.7508 60° Northeast 314 361 6,100 -1,200 Descending Boston Center
04:41PM 42.9811 -71.6511 62° Northeast 303 349 5,100 -1,140 Descending Boston Center
04:42PM 43.0350 -71.5794 44° Northeast 284 327 3,900 -1,380 Descending Boston Center
04:43PM 43.0489 -71.4997 77° East 226 260 2,400 -900 Descending Boston Center
04:44PM 43.0069 -71.4806 162° South 127 146 2,100 -780 Descending Boston Center
04:45PM 42.9692 -71.4556 154° Southeast 122 140 900 -900 Descending Boston Center
04:46PM 42.9419 -71.4389 156° South 134 154 300 4,020 Descending Boston Center
04:47PM 42.9044 -71.4169 157° South 134 154 9,000 4,320 Climbing Boston Center
04:48PM 42.8667 -71.3947 157° South 134 154 9,000  Level Boston Center
04:49PM 42.8311 -71.3756 158° South 134 154 9,000  Level Boston Center
04:51PM 42.9167 -71.4333 316° Northwest  Level FlightAware Approximate
04:58PM 42.9328 -71.4358 316° Northwest  Level Estimated
04:59PM 42.9328 -71.4358 316° Northwest  Level Estimated
05:00PM 42.9328 -71.4358 316° Northwest  Level Estimated
05:01PM 42.9328 -71.4358 316° Northwest  Level Estimated